Terminal Aerodrome Forecast
Issued by NWS

Home | Current Version | Previous Version | Text Only | Print | Product List | Glossary On
Versions: 1 2 3 4 5 6 7 8 9 10 11 12 13
000
FTUS43 KILX 240500
TAFDEC
TAF
KDEC 240520Z 2406/2506 12010KT P6SM BKN120
     FM241600 14014G28KT P6SM BKN100
     FM242100 16017G27KT P6SM VCSH OVC050
     FM250100 15013G21KT 4SM -RA VCTS OVC035CB=

USA.gov is the U.S. government's official web portal to all federal, state and local government web resources and services.